createdAt,value
2017-02-05T00:00:18.020Z,73.25
2017-02-05T00:00:58.793Z,73.34
2017-02-05T00:01:39.297Z,73.72
2017-02-05T00:02:19.802Z,73.63
2017-02-05T00:03:00.257Z,73.63
2017-02-05T00:03:40.804Z,73.63
2017-02-05T00:04:21.282Z,73.15
2017-02-05T00:05:01.786Z,73.63
2017-02-05T00:05:42.346Z,73.53
2017-02-05T00:06:22.823Z,73.53
2017-02-05T00:07:03.420Z,73.44
2017-02-05T00:07:44.008Z,73.25
2017-02-05T00:08:24.524Z,72.86
2017-02-05T00:09:04.996Z,73.1
2017-02-05T00:09:45.459Z,73.1
2017-02-05T00:10:25.953Z,73.28
2017-02-05T00:11:06.418Z,72.62
2017-02-05T00:11:46.945Z,72.9
2017-02-05T00:12:27.416Z,73.28
2017-02-05T00:13:07.965Z,72.62
2017-02-05T00:13:48.691Z,72.24
2017-02-05T00:14:29.530Z,73
2017-02-05T00:15:09.940Z,72.71
2017-02-05T00:15:50.542Z,73.28
2017-02-05T00:16:31.126Z,73
2017-02-05T00:17:11.646Z,73.1
2017-02-05T00:17:52.141Z,73.44
2017-02-05T00:18:32.693Z,73.06
2017-02-05T00:19:13.222Z,73.28
2017-02-05T00:19:53.873Z,72.77
2017-02-05T00:20:34.439Z,73.06
2017-02-05T00:21:14.989Z,72.96
2017-02-05T00:21:55.760Z,73.1
2017-02-05T00:22:36.331Z,73
2017-02-05T00:23:17.048Z,73.38
2017-02-05T00:23:58.215Z,73
2017-02-05T00:24:38.754Z,72.81
2017-02-05T00:25:21.588Z,73.1
2017-02-05T00:26:03.444Z,73.38
2017-02-05T00:26:48.040Z,72.9
2017-02-05T00:27:30.220Z,73.19
2017-02-05T00:29:25.144Z,73.47
2017-02-05T00:30:06.751Z,73.38
2017-02-05T00:30:47.866Z,73.28
2017-02-05T00:31:29.021Z,73.57
2017-02-05T00:32:09.759Z,73.95
2017-02-05T00:32:52.699Z,73.63
2017-02-05T00:33:33.737Z,73.66
2017-02-05T00:34:15.199Z,73.66
2017-02-05T00:34:56.187Z,73.47
2017-02-05T00:35:38.517Z,73.76
2017-02-05T00:36:19.606Z,73.57
2017-02-05T00:37:01.617Z,73.57
2017-02-05T00:37:43.011Z,73.38
2017-02-05T00:38:24.421Z,73.28
2017-02-05T00:39:06.205Z,73.47
2017-02-05T00:39:48.296Z,73.76
2017-02-05T00:40:29.275Z,73.76
2017-02-05T00:41:10.761Z,73.57
2017-02-05T00:41:51.727Z,73.76
2017-02-05T00:43:53.619Z,73.76
2017-02-05T00:45:53.842Z,73.47
2017-02-05T00:46:37.078Z,72.9
2017-02-05T00:47:17.705Z,73.1
2017-02-05T00:47:58.228Z,72.81
2017-02-05T00:48:38.893Z,73
2017-02-05T00:49:19.336Z,73.1
2017-02-05T00:49:59.865Z,73.28
2017-02-05T00:50:40.306Z,73.1
2017-02-05T00:51:20.846Z,73.1
2017-02-05T00:52:01.335Z,72.81
2017-02-05T00:52:41.850Z,72.24
2017-02-05T00:53:22.572Z,72.14
2017-02-05T00:54:03.122Z,72.62
2017-02-05T00:54:43.840Z,72.62
2017-02-05T00:55:24.364Z,72.33
2017-02-05T00:56:04.823Z,72.52
2017-02-05T00:56:45.377Z,72.62
2017-02-05T00:57:25.962Z,72.52
2017-02-05T00:58:06.419Z,72.14
2017-02-05T00:58:46.921Z,71.86
2017-02-05T00:59:27.383Z,72.52
2017-02-05T01:00:07.872Z,71.95
2017-02-05T01:00:48.394Z,72.24
2017-02-05T01:01:29.100Z,71.86
2017-02-05T01:02:09.557Z,71.67
2017-02-05T01:02:50.012Z,71.76
2017-02-05T01:03:30.559Z,71.86
2017-02-05T01:04:11.085Z,71.67
2017-02-05T01:04:51.581Z,72.24
2017-02-05T01:05:32.051Z,72.24
2017-02-05T01:06:12.501Z,71.95
2017-02-05T01:06:52.990Z,72.52
2017-02-05T01:07:33.488Z,72.81
2017-02-05T01:08:14.109Z,72.33
2017-02-05T01:08:54.605Z,72.42
2017-02-05T01:09:35.081Z,72.52
2017-02-05T01:10:15.591Z,71.95
2017-02-05T01:10:56.072Z,72.33
2017-02-05T01:11:36.518Z,71.76
2017-02-05T01:12:17.922Z,70.62
2017-02-05T01:12:57.632Z,70.81
2017-02-05T01:13:38.058Z,71
2017-02-05T01:14:18.516Z,71.86
2017-02-05T01:14:59.054Z,70.81
2017-02-05T01:15:39.478Z,71
2017-02-05T01:16:20.040Z,70.81
2017-02-05T01:17:00.566Z,70.9
2017-02-05T01:17:41.004Z,71.19
2017-02-05T01:18:21.487Z,71
2017-02-05T01:19:02.060Z,71.38
2017-02-05T01:19:42.522Z,71.47
2017-02-05T01:20:22.953Z,71.28
2017-02-05T01:21:03.458Z,71.89
2017-02-05T01:21:44.049Z,71.8
2017-02-05T01:22:24.476Z,71.13
2017-02-05T01:23:04.929Z,70.75
2017-02-05T01:23:45.591Z,71.32
2017-02-05T01:24:25.989Z,71.32
2017-02-05T01:25:06.539Z,71.32
2017-02-05T01:25:47.004Z,71.42
2017-02-05T01:26:27.501Z,70.65
2017-02-05T01:27:07.994Z,70.65
2017-02-05T01:27:48.600Z,71.22
2017-02-05T01:28:29.097Z,71.7
2017-02-05T01:29:09.590Z,70.94
2017-02-05T01:29:50.073Z,70.94
2017-02-05T01:30:30.564Z,70.84
2017-02-05T01:31:11.002Z,71.32
2017-02-05T01:31:51.594Z,71.32
2017-02-05T01:32:32.062Z,71.03
2017-02-05T01:33:12.516Z,70.65
2017-02-05T01:33:53.068Z,70.75
2017-02-05T01:34:33.538Z,71.13
2017-02-05T01:35:13.957Z,70.94
2017-02-05T01:35:54.492Z,70.84
2017-02-05T01:36:34.944Z,70.81
2017-02-05T01:37:15.454Z,71.28
2017-02-05T01:37:55.983Z,71.28
2017-02-05T01:38:36.940Z,71.13
2017-02-05T01:39:16.997Z,71
2017-02-05T01:39:57.512Z,70.81
2017-02-05T01:40:38.009Z,70.81
2017-02-05T01:41:18.475Z,71.28
2017-02-05T01:41:59.009Z,70.72
2017-02-05T01:42:39.510Z,71.09
2017-02-05T01:43:19.986Z,71.09
2017-02-05T01:44:00.468Z,71.28
2017-02-05T01:44:40.911Z,71.19
2017-02-05T01:45:21.414Z,70.62
2017-02-05T01:46:01.938Z,71.28
2017-02-05T01:46:42.375Z,71.28
2017-02-05T01:47:22.902Z,72.24
2017-02-05T01:48:03.339Z,72.24
2017-02-05T01:48:43.886Z,72.24
2017-02-05T01:49:24.382Z,72.05
2017-02-05T01:50:05.140Z,71.57
2017-02-05T01:50:45.640Z,71.86
2017-02-05T01:51:26.110Z,72.2
2017-02-05T01:52:06.584Z,72.49
2017-02-05T01:52:47.072Z,72.39
2017-02-05T01:53:27.604Z,72.49
2017-02-05T01:54:08.188Z,72.39
2017-02-05T01:54:48.675Z,71.95
2017-02-05T01:55:29.150Z,72.39
2017-02-05T01:56:09.621Z,72.2
2017-02-05T01:56:50.287Z,72.01
2017-02-05T01:57:30.788Z,71.82
2017-02-05T01:58:11.308Z,71.86
2017-02-05T01:58:51.775Z,71.91
2017-02-05T01:59:32.264Z,72.14
2017-02-05T02:00:12.733Z,72.39
2017-02-05T02:00:53.262Z,72.11
2017-02-05T02:01:33.723Z,71.82
2017-02-05T02:02:14.235Z,71.86
2017-02-05T02:02:54.691Z,71.72
2017-02-05T02:03:35.215Z,72.01
2017-02-05T02:04:15.700Z,71.63
2017-02-05T02:04:56.209Z,71.53
2017-02-05T02:05:36.793Z,71.82
2017-02-05T02:06:17.192Z,71.91
2017-02-05T02:06:57.790Z,71.63
2017-02-05T02:07:38.344Z,72.01
2017-02-05T02:08:18.763Z,71.72
2017-02-05T02:08:59.305Z,71.72
2017-02-05T02:09:39.770Z,72.3
2017-02-05T02:10:20.418Z,72.11
2017-02-05T02:11:00.958Z,72.2
2017-02-05T02:11:41.403Z,72.2
2017-02-05T02:12:21.965Z,71.91
2017-02-05T02:13:02.412Z,71.91
2017-02-05T02:13:42.867Z,72.11
2017-02-05T02:14:23.429Z,72.3
2017-02-05T02:15:03.958Z,72.67
2017-02-05T02:15:44.449Z,72.2
2017-02-05T02:16:24.901Z,72.3
2017-02-05T02:17:05.403Z,72.39
2017-02-05T02:17:45.859Z,72.11
2017-02-05T02:18:26.388Z,72.3
2017-02-05T02:19:06.830Z,72.49
2017-02-05T02:19:47.326Z,72.39
2017-02-05T02:20:27.792Z,72.39
2017-02-05T02:21:08.294Z,72.58
2017-02-05T02:21:48.843Z,72.39
2017-02-05T02:22:29.324Z,72.49
2017-02-05T02:23:09.747Z,72.11
2017-02-05T02:23:50.292Z,72.3
2017-02-05T02:24:30.754Z,72.2
2017-02-05T02:25:11.270Z,72.3
2017-02-05T02:25:51.823Z,72.49
2017-02-05T02:26:32.293Z,72.3
2017-02-05T02:27:12.754Z,72.55
2017-02-05T02:27:53.236Z,72.35
2017-02-05T02:28:33.733Z,72.11
2017-02-05T02:29:14.253Z,72.11
2017-02-05T02:29:54.726Z,71.91
2017-02-05T02:30:35.234Z,71.82
2017-02-05T02:31:15.692Z,71.97
2017-02-05T02:31:56.187Z,72.45
2017-02-05T02:32:36.705Z,72.16
2017-02-05T02:33:17.175Z,72.45
2017-02-05T02:33:57.672Z,72.2
2017-02-05T02:34:38.128Z,72.58
2017-02-05T02:35:18.653Z,72.45
2017-02-05T02:35:59.135Z,72.35
2017-02-05T02:36:39.629Z,72.26
2017-02-05T02:37:20.157Z,72.49
2017-02-05T02:38:00.634Z,72.45
2017-02-05T02:38:41.122Z,72.55
2017-02-05T02:39:21.608Z,72.45
2017-02-05T02:40:02.123Z,72.58
2017-02-05T02:40:42.720Z,72.45
2017-02-05T02:41:23.161Z,72.35
2017-02-05T02:42:03.691Z,72.55
2017-02-05T02:42:44.176Z,72.07
2017-02-05T02:43:24.706Z,72.07
2017-02-05T02:44:05.221Z,72.45
2017-02-05T02:44:45.760Z,72.07
2017-02-05T02:45:26.247Z,72.26
2017-02-05T02:46:06.720Z,72.16
2017-02-05T02:46:47.229Z,72.07
2017-02-05T02:47:27.703Z,72.16
2017-02-05T02:48:08.221Z,72.55
2017-02-05T02:48:48.671Z,72.35
2017-02-05T02:49:29.184Z,72.35
2017-02-05T02:50:09.686Z,72.35
2017-02-05T02:50:50.278Z,72.45
2017-02-05T02:51:30.738Z,72.74
2017-02-05T02:52:11.277Z,72.45
2017-02-05T02:52:51.754Z,72.55
2017-02-05T02:53:32.278Z,72.45
2017-02-05T02:54:12.834Z,72.26
2017-02-05T02:54:53.274Z,72.74
2017-02-05T02:55:33.817Z,72.35
2017-02-05T02:56:14.261Z,72.64
2017-02-05T02:56:54.798Z,72.07
2017-02-05T02:57:35.240Z,72.55
2017-02-05T02:58:15.745Z,72.26
2017-02-05T02:58:56.210Z,72.64
2017-02-05T02:59:36.706Z,72.55
2017-02-05T03:00:17.244Z,72.45
2017-02-05T03:00:57.654Z,72.35
2017-02-05T03:01:38.223Z,72.16
2017-02-05T03:02:18.684Z,71.88
2017-02-05T03:02:59.132Z,71.78
2017-02-05T03:03:39.638Z,71.97
2017-02-05T03:04:20.280Z,72.55
2017-02-05T03:05:00.855Z,72.26
2017-02-05T03:05:41.349Z,72.26
2017-02-05T03:06:21.987Z,72.45
2017-02-05T03:07:02.561Z,71.78
2017-02-05T03:07:43.032Z,72.07
2017-02-05T03:08:23.538Z,72.64
2017-02-05T03:09:04.035Z,72.35
2017-02-05T03:09:44.565Z,72.45
2017-02-05T03:10:25.113Z,72.45
2017-02-05T03:11:05.656Z,72.35
2017-02-05T03:11:46.248Z,72.26
2017-02-05T03:12:26.710Z,72.55
2017-02-05T03:13:07.245Z,71.78
2017-02-05T03:13:47.800Z,71.88
2017-02-05T03:14:28.243Z,71.78
2017-02-05T03:15:08.715Z,72.64
2017-02-05T03:15:49.181Z,71.97
2017-02-05T03:16:29.681Z,72.55
2017-02-05T03:17:10.190Z,72.35
2017-02-05T03:17:50.621Z,72.6
2017-02-05T03:18:31.113Z,72.55
2017-02-05T03:19:11.671Z,72.55
2017-02-05T03:19:52.325Z,72.51
2017-02-05T03:20:32.872Z,72.32
2017-02-05T03:21:13.391Z,72.22
2017-02-05T03:21:53.903Z,72.03
2017-02-05T03:22:34.451Z,72.03
2017-02-05T03:23:14.959Z,72.32
2017-02-05T03:23:55.442Z,72.22
2017-02-05T03:24:35.981Z,72.22
2017-02-05T03:25:16.538Z,72.41
2017-02-05T03:25:57.281Z,72.32
2017-02-05T03:26:37.644Z,72.32
2017-02-05T03:27:18.141Z,71.84
2017-02-05T03:27:58.641Z,72.7
2017-02-05T03:28:39.308Z,73.08
2017-02-05T03:29:19.851Z,72.89
2017-02-05T03:30:00.377Z,72.79
2017-02-05T03:30:41.156Z,72.6
2017-02-05T03:31:21.659Z,73.08
2017-02-05T03:32:02.115Z,73.46
2017-02-05T03:32:42.706Z,73.08
2017-02-05T03:33:23.197Z,73.27
2017-02-05T03:34:03.650Z,72.79
2017-02-05T03:34:44.177Z,72.41
2017-02-05T03:35:24.694Z,73.27
2017-02-05T03:36:05.210Z,72.6
2017-02-05T03:36:45.725Z,72.7
2017-02-05T03:37:26.231Z,72.41
2017-02-05T03:38:06.761Z,72.41
2017-02-05T03:38:47.550Z,72.79
2017-02-05T03:39:28.043Z,72.7
2017-02-05T03:40:08.479Z,72.7
2017-02-05T03:40:49.107Z,72.79
2017-02-05T03:41:29.609Z,72.41
2017-02-05T03:42:10.089Z,72.7
2017-02-05T03:42:50.594Z,72.7
2017-02-05T03:43:31.071Z,72.89
2017-02-05T03:44:11.539Z,72.99
2017-02-05T03:44:52.096Z,73.18
2017-02-05T03:45:33.291Z,73.08
2017-02-05T03:46:13.905Z,72.7
2017-02-05T03:46:54.470Z,72.7
2017-02-05T03:47:34.923Z,72.7
2017-02-05T03:48:15.439Z,72.41
2017-02-05T03:48:55.961Z,72.32
2017-02-05T03:49:36.542Z,72.79
2017-02-05T03:50:17.110Z,73.55
2017-02-05T03:50:57.575Z,73.18
2017-02-05T03:51:38.040Z,73.36
2017-02-05T03:52:18.533Z,73.74
2017-02-05T03:52:59.065Z,73.65
2017-02-05T03:53:39.591Z,73.74
2017-02-05T03:54:20.073Z,73.55
2017-02-05T03:55:00.566Z,73.65
2017-02-05T03:55:41.036Z,73.42
2017-02-05T03:56:21.941Z,73.08
2017-02-05T03:57:02.372Z,73.74
2017-02-05T03:57:42.926Z,73.65
2017-02-05T03:58:23.486Z,73.84
2017-02-05T03:59:04.029Z,73.71
2017-02-05T03:59:44.492Z,73.52
2017-02-05T04:00:25.014Z,73.42
2017-02-05T04:01:05.451Z,73.18
2017-02-05T04:01:45.961Z,73.42
2017-02-05T04:02:26.412Z,73.61
2017-02-05T04:03:06.882Z,73.36
2017-02-05T04:03:47.494Z,73.55
2017-02-05T04:04:27.916Z,73.65
2017-02-05T04:05:08.383Z,73.27
2017-02-05T04:05:48.846Z,73.55
2017-02-05T04:06:29.321Z,73.84
2017-02-05T04:07:09.872Z,73.84
2017-02-05T04:07:50.377Z,73.18
2017-02-05T04:08:30.969Z,73.74
2017-02-05T04:09:11.429Z,73.46
2017-02-05T04:09:51.905Z,73.27
2017-02-05T04:10:32.419Z,73.18
2017-02-05T04:11:12.947Z,73.65
2017-02-05T04:11:53.419Z,73.36
2017-02-05T04:12:34.010Z,73.55
2017-02-05T04:13:15.054Z,73.36
2017-02-05T04:15:03.328Z,73.08
2017-02-05T04:15:44.027Z,73.08
2017-02-05T04:16:24.542Z,72.89
2017-02-05T04:17:04.997Z,72.41
2017-02-05T04:17:45.480Z,72.41
2017-02-05T04:18:26.011Z,72.51
2017-02-05T04:19:06.494Z,72.41
2017-02-05T04:19:47.016Z,71.94
2017-02-05T04:20:27.531Z,72.13
2017-02-05T04:21:08.027Z,71.94
2017-02-05T04:21:48.435Z,71.94
2017-02-05T04:22:29.019Z,71.75
2017-02-05T04:23:09.524Z,71.94
2017-02-05T04:23:49.964Z,72.32
2017-02-05T04:24:30.454Z,72.13
2017-02-05T04:25:10.989Z,72.22
2017-02-05T04:25:51.440Z,71.75
2017-02-05T04:26:31.986Z,71.75
2017-02-05T04:27:12.547Z,71.56
2017-02-05T04:27:53.011Z,71.46
2017-02-05T04:28:33.547Z,71.66
2017-02-05T04:29:14.066Z,70.89
2017-02-05T04:29:54.531Z,70.99
2017-02-05T04:30:35.037Z,70.89
2017-02-05T04:31:15.547Z,70.7
2017-02-05T04:31:56.075Z,70.99
2017-02-05T04:32:36.519Z,71.08
2017-02-05T04:33:17.006Z,70.99
2017-02-05T04:33:57.463Z,70.89
2017-02-05T04:34:37.968Z,70.99
2017-02-05T04:35:18.479Z,70.89
2017-02-05T04:35:59.026Z,70.61
2017-02-05T04:36:39.558Z,70.79
2017-02-05T04:37:20.072Z,70.32
2017-02-05T04:38:00.539Z,70.42
2017-02-05T04:38:41.082Z,70.32
2017-02-05T04:39:21.510Z,70.13
2017-02-05T04:40:01.997Z,70.23
2017-02-05T04:40:42.509Z,70.32
2017-02-05T04:41:22.987Z,70.61
2017-02-05T04:42:03.480Z,70.42
2017-02-05T04:42:43.963Z,70.42
2017-02-05T04:43:24.519Z,70.36
2017-02-05T04:44:05.278Z,70.32
2017-02-05T04:44:45.522Z,70.04
2017-02-05T04:45:25.998Z,69.6
2017-02-05T04:46:06.479Z,69.5
2017-02-05T04:46:46.964Z,69.46
2017-02-05T04:47:27.447Z,69.02
2017-02-05T04:48:07.973Z,69.02
2017-02-05T04:48:48.434Z,69.41
2017-02-05T04:49:28.950Z,69.21
2017-02-05T04:50:09.441Z,69.02
2017-02-05T04:50:49.876Z,69.6
2017-02-05T04:51:30.386Z,69.5
2017-02-05T04:52:10.862Z,69.31
2017-02-05T04:52:51.337Z,69.41
2017-02-05T04:53:31.872Z,68.55
2017-02-05T04:54:12.385Z,68.93
2017-02-05T04:54:52.839Z,68.74
2017-02-05T04:55:33.362Z,69.02
2017-02-05T04:56:13.864Z,68.65
2017-02-05T04:56:54.365Z,68.07
2017-02-05T04:57:34.956Z,68.07
2017-02-05T04:58:15.557Z,68.27
2017-02-05T04:58:55.982Z,68.17
2017-02-05T04:59:36.534Z,68.07
2017-02-05T05:00:17.034Z,67.98
2017-02-05T05:00:57.567Z,67.79
2017-02-05T05:01:38.015Z,67.88
2017-02-05T05:02:18.518Z,68.33
2017-02-05T05:02:59.019Z,67.79
2017-02-05T05:03:39.667Z,67.57
2017-02-05T05:04:20.139Z,67.47
2017-02-05T05:05:00.633Z,68.07
2017-02-05T05:05:41.153Z,67.66
2017-02-05T05:06:21.641Z,67.66
2017-02-05T05:07:02.140Z,68.27
2017-02-05T05:07:42.622Z,68.17
2017-02-05T05:08:23.087Z,67.6
2017-02-05T05:09:03.787Z,67.79
2017-02-05T05:09:44.257Z,67.6
2017-02-05T05:10:24.803Z,67.57
2017-02-05T05:11:05.226Z,67.6
2017-02-05T05:11:45.708Z,67.57
2017-02-05T05:12:26.172Z,67.76
2017-02-05T05:13:06.660Z,67.57
2017-02-05T05:13:47.190Z,67.76
2017-02-05T05:14:27.723Z,67.79
2017-02-05T05:15:08.151Z,67.47
2017-02-05T05:15:48.728Z,67.79
2017-02-05T05:16:29.345Z,67.57
2017-02-05T05:17:09.856Z,67.76
2017-02-05T05:17:51.058Z,67.66
2017-02-05T05:18:31.560Z,67.47
2017-02-05T05:19:12.076Z,67.32
2017-02-05T05:19:52.551Z,67.03
2017-02-05T05:20:33.033Z,67.32
2017-02-05T05:21:13.624Z,67.41
2017-02-05T05:21:54.182Z,67.09
2017-02-05T05:22:34.681Z,67.13
2017-02-05T05:23:15.174Z,67.22
2017-02-05T05:23:55.729Z,66.84
2017-02-05T05:24:36.268Z,66.94
2017-02-05T05:25:16.799Z,66.27
2017-02-05T05:25:57.329Z,66.52
2017-02-05T05:26:37.786Z,67
2017-02-05T05:27:18.287Z,66.8
2017-02-05T05:27:58.768Z,66.71
2017-02-05T05:28:39.253Z,66.8
2017-02-05T05:29:19.701Z,66.36
2017-02-05T05:30:00.222Z,65.86
2017-02-05T05:30:40.702Z,65.89
2017-02-05T05:31:21.189Z,66.55
2017-02-05T05:32:01.678Z,66.27
2017-02-05T05:32:42.182Z,66.84
2017-02-05T05:33:22.659Z,67.09
2017-02-05T05:34:03.145Z,67.13
2017-02-05T05:34:43.666Z,66.8
2017-02-05T05:35:24.132Z,66.65
2017-02-05T05:36:04.667Z,66.55
2017-02-05T05:36:45.135Z,66.17
2017-02-05T05:37:25.682Z,66.27
2017-02-05T05:38:06.167Z,65.7
2017-02-05T05:38:46.687Z,65.99
2017-02-05T05:39:27.137Z,65.89
2017-02-05T05:40:07.675Z,65.99
2017-02-05T05:40:48.224Z,65.8
2017-02-05T05:41:28.655Z,65.6
2017-02-05T05:42:09.150Z,65.7
2017-02-05T05:42:49.623Z,65.6
2017-02-05T05:43:30.102Z,65.6
2017-02-05T05:44:10.639Z,65.51
2017-02-05T05:44:51.087Z,66.08
2017-02-05T05:45:31.598Z,66.08
2017-02-05T05:46:12.140Z,65.32
2017-02-05T05:46:52.686Z,65.32
2017-02-05T05:47:33.154Z,65.41
2017-02-05T05:48:13.652Z,65.03
2017-02-05T05:48:54.240Z,65.7
2017-02-05T05:49:34.661Z,65.6
2017-02-05T05:50:15.152Z,65.22
2017-02-05T05:50:55.650Z,66.08
2017-02-05T05:51:36.151Z,65.99
2017-02-05T05:52:16.648Z,66.08
2017-02-05T05:52:57.144Z,65.99
2017-02-05T05:53:37.652Z,66.08
2017-02-05T05:54:18.131Z,65.7
2017-02-05T05:54:58.631Z,65.89
2017-02-05T05:55:39.100Z,65.89
2017-02-05T05:56:19.624Z,65.51
2017-02-05T05:57:00.125Z,65.51
2017-02-05T05:57:40.579Z,65.7
2017-02-05T05:58:21.114Z,65.99
2017-02-05T05:59:01.581Z,65.7
2017-02-05T05:59:42.067Z,65.8
2017-02-05T06:00:22.609Z,65.99
2017-02-05T06:01:03.115Z,65.6
2017-02-05T06:01:43.599Z,65.6
2017-02-05T06:02:24.070Z,65.8
2017-02-05T06:03:04.542Z,66.08
2017-02-05T06:03:45.130Z,65.89
2017-02-05T06:04:25.631Z,65.7
2017-02-05T06:05:06.269Z,65.7
2017-02-05T06:05:46.731Z,65.8
2017-02-05T06:06:27.234Z,65.99
2017-02-05T06:07:07.692Z,65.8
2017-02-05T06:07:48.235Z,65.8
2017-02-05T06:08:28.790Z,65.51
2017-02-05T06:09:09.243Z,65.22
2017-02-05T06:09:49.729Z,65.6
2017-02-05T06:10:30.222Z,65.03
2017-02-05T06:11:10.728Z,65.03
2017-02-05T06:11:51.247Z,65.32
2017-02-05T06:12:31.733Z,65.32
2017-02-05T06:13:12.223Z,65.41
2017-02-05T06:13:52.745Z,64.75
2017-02-05T06:14:33.271Z,64.56
2017-02-05T06:15:13.720Z,64.94
2017-02-05T06:15:54.210Z,64.75
2017-02-05T06:16:34.675Z,64.65
2017-02-05T06:17:15.188Z,65.8
2017-02-05T06:17:55.722Z,65.51
2017-02-05T06:18:36.329Z,65.22
2017-02-05T06:19:16.914Z,65.03
2017-02-05T06:19:57.414Z,65.03
2017-02-05T06:20:37.841Z,64.94
2017-02-05T06:21:18.516Z,64.56
2017-02-05T06:21:59.040Z,65.22
2017-02-05T06:22:39.514Z,65.13
2017-02-05T06:23:20.025Z,65.51
2017-02-05T06:24:00.477Z,65.03
2017-02-05T06:24:40.953Z,65.8
2017-02-05T06:25:21.445Z,64.56
2017-02-05T06:26:02.007Z,64.75
2017-02-05T06:26:42.572Z,64.84
2017-02-05T06:27:22.989Z,64.37
2017-02-05T06:28:03.498Z,64.37
2017-02-05T06:28:44.001Z,64.37
2017-02-05T06:29:24.546Z,64.84
2017-02-05T06:30:04.961Z,64.46
2017-02-05T06:30:45.497Z,64.18
2017-02-05T06:31:26.034Z,64.37
2017-02-05T06:32:06.729Z,64.37
2017-02-05T06:32:47.281Z,64.27
2017-02-05T06:33:27.688Z,64.46
2017-02-05T06:34:08.232Z,64.56
2017-02-05T06:34:48.703Z,64.46
2017-02-05T06:35:29.195Z,64.18
2017-02-05T06:36:09.743Z,64.65
2017-02-05T06:36:50.225Z,64.65
2017-02-05T06:37:30.753Z,65.03
2017-02-05T06:38:11.213Z,64.37
2017-02-05T06:38:51.676Z,63.99
2017-02-05T06:39:32.188Z,63.99
2017-02-05T06:40:12.683Z,64.18
2017-02-05T06:40:53.190Z,64.46
2017-02-05T06:41:33.698Z,64.18
2017-02-05T06:42:14.643Z,64.84
2017-02-05T06:42:55.153Z,64.27
2017-02-05T06:43:35.673Z,64.27
2017-02-05T06:44:16.189Z,64.56
2017-02-05T06:44:56.733Z,64.94
2017-02-05T06:45:37.191Z,64.56
2017-02-05T06:46:17.678Z,64.27
2017-02-05T06:46:58.123Z,64.9
2017-02-05T06:47:38.637Z,64.81
2017-02-05T06:48:19.146Z,64.84
2017-02-05T06:48:59.813Z,64.62
2017-02-05T06:49:40.230Z,65
2017-02-05T06:50:20.952Z,64.75
2017-02-05T06:51:01.399Z,64.65
2017-02-05T06:51:41.836Z,64.75
2017-02-05T06:52:22.366Z,64.81
2017-02-05T06:53:02.869Z,64.53
2017-02-05T06:53:43.336Z,64.94
2017-02-05T06:54:23.921Z,64.94
2017-02-05T06:55:04.517Z,64.65
2017-02-05T06:55:44.989Z,64.56
2017-02-05T06:56:25.530Z,64.56
2017-02-05T06:57:06.038Z,64.75
2017-02-05T06:57:46.559Z,64.65
2017-02-05T06:58:27.056Z,64.94
2017-02-05T06:59:07.573Z,64.46
2017-02-05T06:59:48.198Z,64.84
2017-02-05T07:00:28.790Z,64.84
2017-02-05T07:01:09.267Z,64.75
2017-02-05T07:01:49.884Z,64.94
2017-02-05T07:02:30.443Z,64.65
2017-02-05T07:03:10.855Z,65.03
2017-02-05T07:03:51.372Z,64.56
2017-02-05T07:04:31.912Z,64.75
2017-02-05T07:05:12.369Z,64.65
2017-02-05T07:05:52.847Z,64.46
2017-02-05T07:06:33.359Z,64.94
2017-02-05T07:07:13.815Z,64.08
2017-02-05T07:07:54.306Z,63.79
2017-02-05T07:08:34.808Z,64.08
2017-02-05T07:09:15.326Z,64.37
2017-02-05T07:09:55.791Z,64.46
2017-02-05T07:10:36.282Z,64.08
2017-02-05T07:11:16.858Z,64.46
2017-02-05T07:11:57.360Z,64.46
2017-02-05T07:12:37.797Z,64.27
2017-02-05T07:13:18.336Z,64.27
2017-02-05T07:13:58.818Z,64.37
2017-02-05T07:14:39.272Z,64.65
2017-02-05T07:15:19.777Z,63.99
2017-02-05T07:16:00.299Z,63.32
2017-02-05T07:16:40.835Z,63.7
2017-02-05T07:17:21.294Z,63.51
2017-02-05T07:18:01.806Z,63.7
2017-02-05T07:18:42.253Z,63.32
2017-02-05T07:19:22.758Z,63.04
2017-02-05T07:20:03.237Z,62.94
2017-02-05T07:20:43.830Z,63.7
2017-02-05T07:21:24.394Z,63.79
2017-02-05T07:22:04.929Z,63.6
2017-02-05T07:22:45.428Z,63.89
2017-02-05T07:23:25.959Z,63.79
2017-02-05T07:24:06.445Z,63.51
2017-02-05T07:24:46.987Z,63.7
2017-02-05T07:25:27.460Z,63.42
2017-02-05T07:26:07.929Z,63.6
2017-02-05T07:26:48.436Z,63.04
2017-02-05T07:27:28.896Z,63.6
2017-02-05T07:28:09.380Z,63.51
2017-02-05T07:28:50.002Z,63.51
2017-02-05T07:29:30.715Z,63.6
2017-02-05T07:30:11.048Z,63.32
2017-02-05T07:30:51.873Z,63.42
2017-02-05T07:31:32.229Z,63.6
2017-02-05T07:32:12.729Z,63.7
2017-02-05T07:32:53.205Z,63.7
2017-02-05T07:33:33.833Z,63.23
2017-02-05T07:34:18.445Z,62.85
2017-02-05T07:35:00.598Z,62.85
2017-02-05T07:35:41.119Z,63.04
2017-02-05T07:36:21.671Z,62.85
2017-02-05T07:37:02.201Z,62.46
2017-02-05T07:37:42.657Z,63.04
2017-02-05T07:38:23.197Z,62.75
2017-02-05T07:39:03.760Z,62.94
2017-02-05T07:39:44.313Z,63.13
2017-02-05T07:40:24.787Z,63.23
2017-02-05T07:41:07.569Z,62.65
2017-02-05T07:41:48.101Z,62.85
2017-02-05T07:42:28.646Z,62.18
2017-02-05T07:43:09.116Z,63.13
2017-02-05T07:43:49.589Z,63.32
2017-02-05T07:44:30.022Z,63.6
2017-02-05T07:45:10.652Z,63.42
2017-02-05T07:45:51.098Z,63.23
2017-02-05T07:46:31.681Z,62.97
2017-02-05T07:47:12.121Z,62.08
2017-02-05T07:47:52.680Z,62.27
2017-02-05T07:48:33.208Z,61.99
2017-02-05T07:49:13.823Z,62.18
2017-02-05T07:49:54.224Z,62.49
2017-02-05T07:50:34.918Z,62.3
2017-02-05T07:51:15.433Z,61.8
2017-02-05T07:51:55.912Z,62.08
2017-02-05T07:52:36.509Z,61.83
2017-02-05T07:53:16.854Z,62.3
2017-02-05T07:53:57.393Z,62.12
2017-02-05T07:54:37.991Z,62.49
2017-02-05T07:55:18.450Z,62.21
2017-02-05T07:55:58.940Z,62.3
2017-02-05T07:56:39.522Z,62.59
2017-02-05T07:57:19.951Z,61.93
2017-02-05T07:58:00.414Z,61.61
2017-02-05T07:58:41.136Z,61.93
2017-02-05T07:59:21.690Z,61.52
2017-02-05T08:00:02.237Z,61.74
2017-02-05T08:00:42.608Z,61.55
2017-02-05T08:01:23.070Z,62.02
2017-02-05T08:02:03.830Z,61.71
2017-02-05T08:02:44.310Z,61.42
2017-02-05T08:03:24.851Z,61.64
2017-02-05T08:04:05.403Z,61.16
2017-02-05T08:04:45.800Z,61.26
2017-02-05T08:05:26.321Z,61.13
2017-02-05T08:06:06.812Z,61.8
2017-02-05T08:06:47.289Z,61.93
2017-02-05T08:07:27.803Z,61.64
2017-02-05T08:08:08.351Z,61.16
2017-02-05T08:08:48.860Z,60.97
2017-02-05T08:09:29.345Z,61.26
2017-02-05T08:10:09.838Z,61.16
2017-02-05T08:10:50.423Z,61.26
2017-02-05T08:11:30.892Z,61.35
2017-02-05T08:12:11.431Z,61.74
2017-02-05T08:12:52.016Z,61.26
2017-02-05T08:13:33.063Z,61.71
2017-02-05T08:14:14.168Z,61.64
2017-02-05T08:14:54.806Z,61.35
2017-02-05T08:15:35.347Z,61.45
2017-02-05T08:16:15.776Z,60.88
2017-02-05T08:16:56.313Z,60.31
2017-02-05T08:17:37.944Z,60.21
2017-02-05T08:18:18.430Z,60.5
2017-02-05T08:18:59.043Z,60.69
2017-02-05T08:19:39.529Z,60.6
2017-02-05T08:20:20.001Z,60.31
2017-02-05T08:21:00.548Z,60.02
2017-02-05T08:21:41.639Z,60.47
2017-02-05T08:22:21.646Z,60.69
2017-02-05T08:23:02.160Z,61.26
2017-02-05T08:23:42.611Z,60.5
2017-02-05T08:24:23.151Z,60.5
2017-02-05T08:25:03.580Z,60.53
2017-02-05T08:25:44.763Z,60.34
2017-02-05T08:26:28.012Z,60.6
2017-02-05T08:27:08.546Z,60.02
2017-02-05T08:27:49.127Z,60.5
2017-02-05T08:28:29.865Z,60.72
2017-02-05T08:29:13.073Z,60.5
2017-02-05T08:29:54.301Z,60.12
2017-02-05T08:30:35.341Z,60.21
2017-02-05T08:31:15.815Z,60.05
2017-02-05T08:31:56.414Z,60.24
2017-02-05T08:32:36.976Z,59.77
2017-02-05T08:33:17.477Z,59.39
2017-02-05T08:33:57.983Z,59.39
2017-02-05T08:34:38.509Z,59.48
2017-02-05T08:35:19.294Z,59.48
2017-02-05T08:35:59.609Z,59.77
2017-02-05T08:36:41.002Z,59.86
2017-02-05T08:37:22.355Z,59.77
2017-02-05T08:38:03.228Z,59.48
2017-02-05T08:38:44.327Z,59.48
2017-02-05T08:39:24.836Z,59.39
2017-02-05T08:40:06.113Z,59.1
2017-02-05T08:40:47.879Z,58.81
2017-02-05T08:41:27.442Z,59.2
2017-02-05T08:42:07.959Z,59.2
2017-02-05T08:42:48.436Z,59.01
2017-02-05T08:43:29.219Z,58.62
2017-02-05T08:44:09.753Z,58.91
2017-02-05T08:44:50.186Z,58.81
2017-02-05T08:45:30.728Z,59.01
2017-02-05T08:46:11.280Z,58.72
2017-02-05T08:46:51.785Z,59.1
2017-02-05T08:47:32.366Z,59.01
2017-02-05T08:48:12.917Z,59.58
2017-02-05T08:48:53.431Z,59.48
2017-02-05T08:49:34.108Z,59.86
2017-02-05T08:50:14.427Z,59.48
2017-02-05T08:50:55.097Z,58.72